createdAt,value
2023-04-15T00:00:14.350Z,89.39
2023-04-15T00:01:17.363Z,89.51
2023-04-15T00:02:19.256Z,89.65
2023-04-15T00:03:19.805Z,89.89
2023-04-15T00:04:21.400Z,90.17
2023-04-15T00:05:23.004Z,90.28
2023-04-15T00:06:24.741Z,90.49
2023-04-15T00:07:26.483Z,90.76
2023-04-15T00:08:28.213Z,90.86
2023-04-15T00:09:29.951Z,91.05
2023-04-15T00:10:31.683Z,91.55
2023-04-15T00:11:33.411Z,92.04
2023-04-15T00:12:35.173Z,92.05
2023-04-15T00:13:36.880Z,92.25
2023-04-15T00:14:38.619Z,92.9
2023-04-15T00:15:40.329Z,93.21
2023-04-15T00:16:42.122Z,94.06
2023-04-15T00:17:43.859Z,94.47
2023-04-15T00:18:45.556Z,95.06
2023-04-15T00:19:47.499Z,95.57
2023-04-15T00:20:48.998Z,94.96
2023-04-15T00:21:50.737Z,95.1
2023-04-15T00:22:52.492Z,95.11
2023-04-15T00:23:54.226Z,95.4
2023-04-15T00:24:55.972Z,95.35
2023-04-15T00:25:57.682Z,95.58
2023-04-15T00:26:59.418Z,95.9
2023-04-15T00:28:01.182Z,96
2023-04-15T00:29:02.868Z,96.17
2023-04-15T00:30:04.617Z,96.29
2023-04-15T00:31:06.456Z,96.37
2023-04-15T00:32:08.110Z,96.51
2023-04-15T00:33:09.837Z,97.29
2023-04-15T00:34:11.540Z,97.26
2023-04-15T00:35:13.292Z,97.45
2023-04-15T00:36:15.012Z,97.38
2023-04-15T00:37:16.755Z,97.33
2023-04-15T00:38:18.519Z,97.48
2023-04-15T00:39:20.211Z,97.27
2023-04-15T00:40:21.977Z,97.54
2023-04-15T00:41:23.700Z,97.9
2023-04-15T00:42:25.402Z,97.77
2023-04-15T00:43:27.146Z,97.75
2023-04-15T00:44:28.895Z,97.78
2023-04-15T00:45:30.665Z,99.09
2023-04-15T00:46:32.364Z,100
2023-04-15T00:47:34.173Z,100
2023-04-15T00:48:35.846Z,100
2023-04-15T00:49:37.542Z,100
2023-04-15T00:50:39.318Z,100
2023-04-15T00:51:41.023Z,100
2023-04-15T00:52:42.767Z,100
2023-04-15T00:53:44.546Z,100
2023-04-15T00:54:46.232Z,100
2023-04-15T00:56:08.753Z,100
2023-04-15T00:57:10.508Z,100
2023-04-15T00:58:12.253Z,100
2023-04-15T00:59:13.956Z,100
2023-04-15T01:00:15.683Z,100
2023-04-15T01:01:17.447Z,100
2023-04-15T01:02:19.230Z,100
2023-04-15T01:03:21.047Z,100
2023-04-15T01:04:22.802Z,100
2023-04-15T01:05:24.343Z,100
2023-04-15T01:06:26.063Z,100
2023-04-15T01:07:27.802Z,100
2023-04-15T01:08:29.574Z,100
2023-04-15T01:09:31.278Z,100
2023-04-15T01:10:33.021Z,100
2023-04-15T01:11:34.759Z,100
2023-04-15T01:12:36.491Z,100
2023-04-15T01:13:38.272Z,100
2023-04-15T01:14:39.951Z,100
2023-04-15T01:15:41.748Z,100
2023-04-15T01:16:43.431Z,100
2023-04-15T01:17:45.184Z,100
2023-04-15T01:18:46.888Z,100
2023-04-15T01:19:48.636Z,100
2023-04-15T01:20:50.342Z,100
2023-04-15T01:21:52.171Z,100
2023-04-15T01:22:53.826Z,100
2023-04-15T01:23:55.567Z,100
2023-04-15T01:24:57.299Z,100
2023-04-15T01:25:59.064Z,100
2023-04-15T01:27:00.756Z,100
2023-04-15T01:28:02.480Z,100
2023-04-15T01:29:04.220Z,100
2023-04-15T01:30:05.984Z,100
2023-04-15T01:31:07.839Z,100
2023-04-15T01:32:09.421Z,100
2023-04-15T01:33:11.190Z,100
2023-04-15T01:34:12.897Z,100
2023-04-15T01:35:14.631Z,100
2023-04-15T01:36:16.371Z,100
2023-04-15T01:37:18.094Z,100
2023-04-15T01:38:19.838Z,100
2023-04-15T01:39:21.584Z,100
2023-04-15T01:40:23.288Z,100
2023-04-15T01:41:25.041Z,100
2023-04-15T01:42:26.774Z,100
2023-04-15T01:43:28.518Z,100
2023-04-15T01:44:30.240Z,100
2023-04-15T01:45:31.990Z,100
2023-04-15T01:46:33.733Z,100
2023-04-15T01:47:35.481Z,100
2023-04-15T01:48:37.199Z,100
2023-04-15T01:49:38.920Z,100
2023-04-15T01:50:40.670Z,100
2023-04-15T01:51:42.378Z,100
2023-04-15T01:52:44.112Z,100
2023-04-15T01:53:45.854Z,100
2023-04-15T01:54:47.561Z,100
2023-04-15T01:55:49.298Z,100
2023-04-15T01:56:51.070Z,100
2023-04-15T01:57:52.798Z,100
2023-04-15T01:58:54.522Z,100
2023-04-15T01:59:56.252Z,100
2023-04-15T02:00:58.045Z,100
2023-04-15T02:01:59.868Z,100
2023-04-15T02:03:01.557Z,100
2023-04-15T02:04:03.286Z,100
2023-04-15T02:05:04.944Z,100
2023-04-15T02:06:06.666Z,100
2023-04-15T02:07:08.402Z,100
2023-04-15T02:08:10.328Z,100
2023-04-15T02:09:11.905Z,100
2023-04-15T02:10:13.654Z,100
2023-04-15T02:11:15.362Z,100
2023-04-15T02:12:17.069Z,100
2023-04-15T02:13:18.804Z,100
2023-04-15T02:14:20.664Z,100
2023-04-15T02:15:22.250Z,100
2023-04-15T02:16:24.021Z,100
2023-04-15T02:17:25.748Z,100
2023-04-15T02:18:27.470Z,100
2023-04-15T02:19:29.181Z,100
2023-04-15T02:20:30.943Z,100
2023-04-15T02:21:32.671Z,100
2023-04-15T02:22:34.371Z,100
2023-04-15T02:23:36.124Z,100
2023-04-15T02:24:37.853Z,100
2023-04-15T02:25:39.575Z,100
2023-04-15T02:26:41.323Z,100
2023-04-15T02:27:43.095Z,100
2023-04-15T02:28:44.792Z,100
2023-04-15T02:29:46.533Z,100
2023-04-15T02:30:48.292Z,100
2023-04-15T02:31:50.048Z,100
2023-04-15T02:32:51.872Z,100
2023-04-15T02:33:53.476Z,100
2023-04-15T02:34:55.233Z,100
2023-04-15T02:35:56.972Z,100
2023-04-15T02:36:58.675Z,100
2023-04-15T02:38:00.445Z,100
2023-04-15T02:39:02.405Z,100
2023-04-15T02:40:03.861Z,100
2023-04-15T02:41:05.600Z,100
2023-04-15T02:42:07.337Z,100
2023-04-15T02:43:09.091Z,100
2023-04-15T02:44:11.557Z,100
2023-04-15T02:45:12.551Z,100
2023-04-15T02:46:14.349Z,100
2023-04-15T02:47:16.028Z,100
2023-04-15T02:48:17.733Z,100
2023-04-15T02:49:19.501Z,100
2023-04-15T02:50:21.209Z,100
2023-04-15T02:51:23.158Z,100
2023-04-15T02:52:24.686Z,100
2023-04-15T02:53:26.415Z,100
2023-04-15T02:54:28.140Z,100
2023-04-15T02:55:29.861Z,100
2023-04-15T02:56:31.611Z,100
2023-04-15T02:57:33.336Z,100
2023-04-15T02:58:35.045Z,100
2023-04-15T02:59:36.786Z,100
2023-04-15T03:00:38.565Z,100
2023-04-15T03:02:42.254Z,100
2023-04-15T03:03:43.795Z,100
2023-04-15T03:04:45.455Z,100
2023-04-15T03:05:47.178Z,100
2023-04-15T03:06:48.911Z,100
2023-04-15T03:07:50.653Z,100
2023-04-15T03:08:52.377Z,100
2023-04-15T03:09:54.107Z,100
2023-04-15T03:10:55.954Z,100
2023-04-15T03:11:57.605Z,100
2023-04-15T03:12:59.326Z,100
2023-04-15T03:14:01.104Z,100
2023-04-15T03:15:02.799Z,100
2023-04-15T03:16:04.635Z,100
2023-04-15T03:17:06.271Z,100
2023-04-15T03:18:08.007Z,100
2023-04-15T03:19:09.716Z,100
2023-04-15T03:20:11.516Z,100
2023-04-15T03:21:13.179Z,100
2023-04-15T03:22:14.920Z,100
2023-04-15T03:23:16.679Z,100
2023-04-15T03:24:18.393Z,100
2023-04-15T03:25:20.142Z,100
2023-04-15T03:26:21.868Z,100
2023-04-15T03:27:23.598Z,100
2023-04-15T03:28:25.319Z,100
2023-04-15T03:29:27.069Z,100
2023-04-15T03:30:28.798Z,100
2023-04-15T03:31:30.577Z,100
2023-04-15T03:32:32.332Z,100
2023-04-15T03:33:33.997Z,100
2023-04-15T03:34:35.721Z,100
2023-04-15T03:35:37.479Z,100
2023-04-15T03:36:39.200Z,100
2023-04-15T03:37:40.954Z,100
2023-04-15T03:38:42.790Z,100
2023-04-15T03:39:44.399Z,100
2023-04-15T03:40:46.151Z,100
2023-04-15T03:41:47.868Z,100
2023-04-15T03:42:49.632Z,100
2023-04-15T03:43:51.329Z,100
2023-04-15T03:44:53.064Z,100
2023-04-15T03:45:54.809Z,100
2023-04-15T03:46:56.609Z,100
2023-04-15T03:48:11.277Z,100
2023-04-15T03:49:00.410Z,100
2023-04-15T03:50:01.729Z,100
2023-04-15T03:51:03.460Z,100
2023-04-15T03:52:05.223Z,100
2023-04-15T03:53:07.015Z,100
2023-04-15T03:54:08.668Z,100
2023-04-15T03:55:10.539Z,100
2023-04-15T03:56:12.156Z,100
2023-04-15T03:57:13.909Z,100
2023-04-15T03:58:15.620Z,100
2023-04-15T03:59:17.337Z,100
2023-04-15T04:00:19.074Z,100
2023-04-15T04:01:20.818Z,100
2023-04-15T04:02:22.728Z,100
2023-04-15T04:03:24.480Z,100
2023-04-15T04:04:26.138Z,100
2023-04-15T04:05:27.735Z,100
2023-04-15T04:06:29.517Z,100
2023-04-15T04:07:31.253Z,100
2023-04-15T04:08:32.943Z,100
2023-04-15T04:09:34.675Z,100
2023-04-15T04:10:36.410Z,100
2023-04-15T04:11:38.193Z,100
2023-04-15T04:12:39.888Z,100
2023-04-15T04:13:41.613Z,100
2023-04-15T04:14:43.408Z,100
2023-04-15T04:15:45.115Z,100
2023-04-15T04:16:46.826Z,100
2023-04-15T04:17:48.696Z,100
2023-04-15T04:18:50.344Z,100
2023-04-15T04:19:52.027Z,100
2023-04-15T04:20:53.770Z,100
2023-04-15T04:21:55.466Z,100
2023-04-15T04:22:57.227Z,100
2023-04-15T04:23:59.115Z,100
2023-04-15T04:25:00.687Z,100
2023-04-15T04:26:02.425Z,100
2023-04-15T04:27:04.349Z,100
2023-04-15T04:28:05.913Z,100
2023-04-15T04:29:07.616Z,100
2023-04-15T04:30:09.346Z,100
2023-04-15T04:31:11.114Z,100
2023-04-15T04:32:12.862Z,100
2023-04-15T04:33:14.546Z,100
2023-04-15T04:34:16.373Z,100
2023-04-15T04:35:18.021Z,100
2023-04-15T04:36:19.737Z,100
2023-04-15T04:37:21.486Z,100
2023-04-15T04:38:23.223Z,100
2023-04-15T04:39:24.950Z,100
2023-04-15T04:40:26.678Z,100
2023-04-15T04:41:28.437Z,100
2023-04-15T04:42:30.159Z,100
2023-04-15T04:43:31.900Z,100
2023-04-15T04:44:33.612Z,100
2023-04-15T04:45:35.378Z,100
2023-04-15T04:46:37.064Z,100
2023-04-15T04:47:38.862Z,100
2023-04-15T04:48:40.556Z,100
2023-04-15T04:49:42.299Z,100
2023-04-15T04:50:44.018Z,100
2023-04-15T04:51:45.728Z,100
2023-04-15T04:52:47.492Z,100
2023-04-15T04:53:49.231Z,100
2023-04-15T04:54:50.975Z,100
2023-04-15T04:55:52.683Z,100
2023-04-15T04:56:54.399Z,100
2023-04-15T04:57:56.177Z,100
2023-04-15T04:58:57.931Z,100
2023-04-15T04:59:59.604Z,100
2023-04-15T05:01:01.381Z,100
2023-04-15T05:02:03.200Z,100
2023-04-15T05:03:04.996Z,100
2023-04-15T05:04:06.659Z,100
2023-04-15T05:05:08.275Z,100
2023-04-15T05:06:10.004Z,100
2023-04-15T05:07:11.754Z,100
2023-04-15T05:08:13.518Z,100
2023-04-15T05:09:15.230Z,100
2023-04-15T05:10:16.978Z,100
2023-04-15T05:11:18.684Z,100
2023-04-15T05:12:20.418Z,100
2023-04-15T05:13:22.152Z,100
2023-04-15T05:14:23.980Z,100
2023-04-15T05:15:25.682Z,100
2023-04-15T05:16:29.232Z,100
2023-04-15T05:17:34.441Z,100
2023-04-15T05:18:40.449Z,100
2023-04-15T05:19:42.882Z,100
2023-04-15T05:20:44.586Z,100
2023-04-15T05:21:46.285Z,100
2023-04-15T05:22:48.056Z,100
2023-04-15T05:23:49.776Z,100
2023-04-15T05:24:51.505Z,100
2023-04-15T05:25:53.238Z,100
2023-04-15T05:26:54.960Z,100
2023-04-15T05:27:56.691Z,100
2023-04-15T05:28:58.620Z,100
2023-04-15T05:30:00.192Z,100
2023-04-15T05:31:01.935Z,100
2023-04-15T05:32:03.624Z,100
2023-04-15T05:33:05.377Z,100
2023-04-15T05:34:07.097Z,100
2023-04-15T05:35:08.855Z,100
2023-04-15T05:36:10.559Z,100
2023-04-15T05:37:12.299Z,100
2023-04-15T05:38:14.033Z,100
2023-04-15T05:39:15.762Z,100
2023-04-15T05:40:17.491Z,100
2023-04-15T05:41:19.943Z,100
2023-04-15T05:42:20.963Z,100
2023-04-15T05:43:22.706Z,100
2023-04-15T05:44:24.425Z,100
2023-04-15T05:45:26.172Z,100
2023-04-15T05:46:27.922Z,100
2023-04-15T05:47:29.704Z,100
2023-04-15T05:48:31.374Z,100
2023-04-15T05:49:33.089Z,100
2023-04-15T05:50:34.825Z,100
2023-04-15T05:51:36.557Z,100
2023-04-15T05:52:38.295Z,100
2023-04-15T05:53:40.028Z,100
2023-04-15T05:54:41.778Z,100
2023-04-15T05:55:43.579Z,100
2023-04-15T05:56:45.229Z,100
2023-04-15T05:57:46.960Z,100
2023-04-15T05:58:48.704Z,100
2023-04-15T05:59:50.429Z,100
2023-04-15T06:00:52.178Z,100
2023-04-15T06:01:53.911Z,100
2023-04-15T06:02:55.706Z,100
2023-04-15T06:03:57.484Z,100
2023-04-15T06:04:59.148Z,100
2023-04-15T06:06:00.839Z,100
2023-04-15T06:07:02.570Z,100
2023-04-15T06:08:04.282Z,100
2023-04-15T06:09:06.043Z,100
2023-04-15T06:10:07.776Z,100
2023-04-15T06:11:09.508Z,100
2023-04-15T06:12:11.239Z,100
2023-04-15T06:13:13.009Z,100
2023-04-15T06:14:14.699Z,100
2023-04-15T06:15:16.420Z,100
2023-04-15T06:16:18.203Z,100
2023-04-15T06:17:19.919Z,100
2023-04-15T06:18:21.637Z,100
2023-04-15T06:19:23.377Z,100
2023-04-15T06:20:25.105Z,100
2023-04-15T06:21:26.883Z,100
2023-04-15T06:22:28.577Z,100
2023-04-15T06:23:30.298Z,100
2023-04-15T06:24:32.049Z,100
2023-04-15T06:25:33.782Z,100
2023-04-15T06:26:35.507Z,100
2023-04-15T06:27:37.228Z,100
2023-04-15T06:28:38.979Z,100
2023-04-15T06:29:40.705Z,100
2023-04-15T06:30:42.446Z,100
2023-04-15T06:31:44.225Z,100
2023-04-15T06:32:45.977Z,100
2023-04-15T06:33:47.646Z,100
2023-04-15T06:34:49.422Z,100
2023-04-15T06:35:51.112Z,100
2023-04-15T06:36:52.833Z,100
2023-04-15T06:37:54.573Z,100
2023-04-15T06:38:56.314Z,100
2023-04-15T06:39:58.047Z,100
2023-04-15T06:40:59.872Z,100
2023-04-15T06:42:01.550Z,100
2023-04-15T06:43:03.251Z,100
2023-04-15T06:44:05.192Z,100
2023-04-15T06:45:06.734Z,100
2023-04-15T06:46:08.522Z,100
2023-04-15T06:47:10.216Z,100
2023-04-15T06:48:11.928Z,100
2023-04-15T06:49:13.651Z,100
2023-04-15T06:50:15.387Z,100
2023-04-15T06:51:17.166Z,100
2023-04-15T06:52:18.854Z,100
2023-04-15T06:53:20.581Z,100
2023-04-15T06:54:22.323Z,100
2023-04-15T06:55:24.073Z,100
2023-04-15T06:56:25.784Z,100
2023-04-15T06:57:27.519Z,100
2023-04-15T06:58:29.275Z,100
2023-04-15T06:59:30.985Z,100
2023-04-15T07:00:32.748Z,100
2023-04-15T07:01:34.530Z,100
2023-04-15T07:02:36.360Z,100
2023-04-15T07:03:37.930Z,100
2023-04-15T07:04:39.688Z,100
2023-04-15T07:05:41.430Z,100
2023-04-15T07:06:43.148Z,100
2023-04-15T07:07:44.853Z,100
2023-04-15T07:08:46.583Z,100
2023-04-15T07:09:48.336Z,100
2023-04-15T07:10:50.074Z,100
2023-04-15T07:11:51.798Z,100
2023-04-15T07:12:53.532Z,100
2023-04-15T07:13:55.276Z,100
2023-04-15T07:14:57.000Z,100
2023-04-15T07:15:58.732Z,100
2023-04-15T07:17:00.492Z,100
2023-04-15T07:18:02.236Z,100
2023-04-15T07:19:04.278Z,100
2023-04-15T07:20:05.664Z,100
2023-04-15T07:21:07.400Z,100
2023-04-15T07:22:09.156Z,100
2023-04-15T07:23:10.859Z,100
2023-04-15T07:24:12.615Z,100
2023-04-15T07:25:15.719Z,100
2023-04-15T07:26:16.091Z,100
2023-04-15T07:27:17.836Z,100
2023-04-15T07:28:19.545Z,100
2023-04-15T07:29:21.368Z,100
2023-04-15T07:30:22.984Z,100
2023-04-15T07:31:24.754Z,100
2023-04-15T07:32:26.538Z,100
2023-04-15T07:33:28.232Z,100
2023-04-15T07:35:31.685Z,100
2023-04-15T07:36:33.420Z,100
2023-04-15T07:37:35.168Z,100
2023-04-15T07:38:36.901Z,100
2023-04-15T07:39:38.599Z,100
2023-04-15T07:40:40.384Z,100
2023-04-15T07:41:42.077Z,100
2023-04-15T07:42:43.804Z,100
2023-04-15T07:43:45.553Z,100
2023-04-15T07:44:47.283Z,100
2023-04-15T07:45:49.032Z,100
2023-04-15T07:46:50.753Z,100
2023-04-15T07:47:52.608Z,100
2023-04-15T07:48:54.252Z,100
2023-04-15T07:49:55.953Z,100
2023-04-15T07:50:57.689Z,100
2023-04-15T07:51:59.430Z,100
2023-04-15T07:53:01.155Z,100
2023-04-15T07:54:02.899Z,98.83
2023-04-15T07:55:04.626Z,85.83
2023-04-15T07:56:06.348Z,94.94
2023-04-15T07:57:08.090Z,94.54
2023-04-15T07:58:09.824Z,92.14
2023-04-15T07:59:11.564Z,92.16
2023-04-15T08:00:13.310Z,89.72
2023-04-15T08:01:15.039Z,89.13
2023-04-15T08:02:16.934Z,89.57
2023-04-15T08:03:18.532Z,86
2023-04-15T08:04:20.358Z,89.7
2023-04-15T08:05:22.073Z,91.65
2023-04-15T08:06:23.716Z,90.49
2023-04-15T08:07:25.437Z,92.81
2023-04-15T08:08:27.152Z,93.87
2023-04-15T08:09:28.879Z,94.04
2023-04-15T08:10:30.628Z,94.82
2023-04-15T08:11:32.368Z,95.9
2023-04-15T08:12:34.111Z,98.63
2023-04-15T08:13:35.836Z,99.63
2023-04-15T08:14:37.559Z,97.47
2023-04-15T08:15:39.377Z,97
2023-04-15T08:16:41.044Z,93.03
2023-04-15T08:17:42.833Z,92.47
2023-04-15T08:18:44.504Z,88.65
2023-04-15T08:19:46.226Z,87.24
2023-04-15T08:20:47.954Z,85.84
2023-04-15T08:21:49.721Z,85.71
2023-04-15T08:22:51.452Z,87.59
2023-04-15T08:23:53.234Z,86.8
2023-04-15T08:24:54.897Z,88.22
2023-04-15T08:25:56.628Z,88.82
2023-04-15T08:26:58.412Z,88.09
2023-04-15T08:28:00.124Z,88.3
2023-04-15T08:29:02.258Z,92.33
2023-04-15T08:30:04.974Z,93.17
2023-04-15T08:31:05.407Z,92.3
2023-04-15T08:32:07.178Z,94.42
2023-04-15T08:33:08.802Z,94.77
2023-04-15T08:34:10.550Z,93.03
2023-04-15T08:35:12.269Z,94.56
2023-04-15T08:36:14.115Z,96.64
2023-04-15T08:37:15.730Z,97.57
2023-04-15T08:38:17.497Z,96.73
2023-04-15T08:39:19.230Z,97.44
2023-04-15T08:40:20.978Z,97.22
2023-04-15T08:41:22.675Z,100
2023-04-15T08:42:24.404Z,99.56
2023-04-15T08:43:26.133Z,100
2023-04-15T08:44:27.882Z,100
2023-04-15T08:45:29.628Z,100
2023-04-15T08:46:31.375Z,100
2023-04-15T08:47:32.995Z,97.83
2023-04-15T08:48:34.654Z,97.68
2023-04-15T08:49:36.390Z,94.03
2023-04-15T08:50:38.122Z,97.03
2023-04-15T08:51:39.862Z,95.19
2023-04-15T08:52:41.722Z,94.42
2023-04-15T08:53:43.341Z,93.21
2023-04-15T08:54:45.062Z,90.64
2023-04-15T08:55:46.798Z,88.9
2023-04-15T08:56:48.544Z,91.44
2023-04-15T08:57:50.213Z,93.99
2023-04-15T08:58:51.956Z,93.19
2023-04-15T08:59:53.708Z,89.11
2023-04-15T09:00:55.513Z,88.17
2023-04-15T09:01:57.207Z,86.16
2023-04-15T09:02:58.962Z,84.28
2023-04-15T09:04:00.648Z,76.85
2023-04-15T09:05:02.417Z,75.6
2023-04-15T09:06:04.117Z,78.32
2023-04-15T09:07:05.843Z,78.87
2023-04-15T09:08:07.613Z,79.56
2023-04-15T09:09:09.324Z,80.1
2023-04-15T09:10:11.028Z,81.43
2023-04-15T09:11:12.746Z,71.41
2023-04-15T09:12:14.496Z,77.01
2023-04-15T09:13:16.230Z,77.3
2023-04-15T09:14:17.969Z,76.16
2023-04-15T09:15:19.692Z,74.69
2023-04-15T09:16:21.447Z,75.39
2023-04-15T09:17:23.180Z,64.57
2023-04-15T09:18:24.895Z,66.61
2023-04-15T09:19:26.655Z,66.8
2023-04-15T09:20:28.370Z,66.49
2023-04-15T09:21:30.120Z,68.11
2023-04-15T09:22:31.842Z,69.49
2023-04-15T09:23:33.558Z,71.08
2023-04-15T09:24:35.307Z,67.16
2023-04-15T09:25:37.032Z,64.86
2023-04-15T09:26:38.811Z,66.66
2023-04-15T09:27:40.515Z,64.85
2023-04-15T09:28:42.261Z,56.6
2023-04-15T09:29:43.977Z,62.17
2023-04-15T09:30:45.750Z,61.33
2023-04-15T09:31:47.456Z,64.95
2023-04-15T09:32:49.192Z,60.04
2023-04-15T09:33:50.945Z,59.19
2023-04-15T09:34:52.664Z,54.85
2023-04-15T09:35:54.423Z,57.38
2023-04-15T09:36:56.177Z,60.16
2023-04-15T09:37:57.893Z,56.55
2023-04-15T09:38:59.634Z,59.97
2023-04-15T09:40:01.358Z,60.84
2023-04-15T09:41:03.091Z,64.04
2023-04-15T09:42:04.806Z,61.46
2023-04-15T09:43:06.560Z,58.03
2023-04-15T09:44:08.267Z,60.31
2023-04-15T09:45:09.996Z,55.13
2023-04-15T09:46:11.825Z,59.51
2023-04-15T09:47:13.534Z,58
2023-04-15T09:48:15.224Z,55.26
2023-04-15T09:49:17.004Z,57.63
2023-04-15T09:50:18.699Z,60.58
2023-04-15T09:51:20.478Z,58.89
2023-04-15T09:52:22.168Z,57.67
2023-04-15T09:53:23.916Z,52.04
2023-04-15T09:54:25.612Z,54.38
2023-04-15T09:55:27.381Z,52.21
2023-04-15T09:56:29.110Z,56.19
2023-04-15T09:57:30.835Z,58.98
2023-04-15T09:58:32.569Z,56.73
2023-04-15T09:59:34.329Z,54.38
2023-04-15T10:00:36.048Z,54.48
2023-04-15T10:01:38.052Z,53.65
2023-04-15T10:02:39.672Z,52.58
2023-04-15T10:03:41.367Z,53.87
2023-04-15T10:04:43.105Z,51.38
2023-04-15T10:05:44.898Z,50.79
2023-04-15T10:06:46.416Z,51.15
2023-04-15T10:07:50.226Z,51.82
2023-04-15T10:08:55.050Z,49.97
2023-04-15T10:09:56.779Z,50.96
2023-04-15T10:10:58.513Z,48.07
2023-04-15T10:12:00.244Z,50.35
2023-04-15T10:13:01.968Z,53.27
2023-04-15T10:14:04.143Z,54.24
2023-04-15T10:15:07.574Z,55.48
2023-04-15T10:16:12.375Z,58.97
2023-04-15T10:17:14.037Z,57.37
2023-04-15T10:18:15.896Z,57.26
2023-04-15T10:19:17.517Z,55.28
2023-04-15T10:20:19.253Z,53.78
2023-04-15T10:21:21.023Z,48.97
2023-04-15T10:22:22.716Z,51.14
2023-04-15T10:23:24.487Z,50.09
2023-04-15T10:24:26.225Z,50.11
2023-04-15T10:25:27.911Z,53
2023-04-15T10:26:29.653Z,55.12
2023-04-15T10:27:31.381Z,52.81
2023-04-15T10:28:33.123Z,53.44
2023-04-15T10:29:34.881Z,51.41
2023-04-15T10:30:36.594Z,54.48
2023-04-15T10:31:38.485Z,51.89
2023-04-15T10:32:40.203Z,51.53
2023-04-15T10:33:41.794Z,52.74
2023-04-15T10:34:43.588Z,50.51
2023-04-15T10:35:45.259Z,50.87
2023-04-15T10:36:47.020Z,50.06
2023-04-15T10:37:48.729Z,49.67
2023-04-15T10:38:50.492Z,47
2023-04-15T10:39:52.188Z,50.48
2023-04-15T10:40:53.945Z,47.88
2023-04-15T10:41:55.736Z,49.7
2023-04-15T10:42:57.391Z,50.86
2023-04-15T10:43:59.160Z,49.88
2023-04-15T10:45:00.897Z,51.52
2023-04-15T10:46:02.928Z,51.74
2023-04-15T10:47:04.322Z,52.13
2023-04-15T10:48:06.132Z,48.93
2023-04-15T10:49:07.807Z,50.25
2023-04-15T10:50:09.578Z,49.76
2023-04-15T10:51:11.309Z,49.93
2023-04-15T10:52:13.036Z,49.55
2023-04-15T10:53:14.763Z,51.17
2023-04-15T10:54:16.508Z,51.08
2023-04-15T10:55:18.222Z,46.89
2023-04-15T10:56:19.960Z,49.44
2023-04-15T10:57:21.692Z,47.67
2023-04-15T10:58:23.434Z,48.75
2023-04-15T10:59:25.174Z,47.23
2023-04-15T11:00:26.911Z,48.07
2023-04-15T11:01:28.713Z,45.26
2023-04-15T11:02:30.664Z,45.63
2023-04-15T11:03:32.242Z,47.57
2023-04-15T11:04:33.939Z,44.74
2023-04-15T11:05:35.561Z,47.49
2023-04-15T11:06:37.313Z,49.59
2023-04-15T11:07:39.092Z,50.79
2023-04-15T11:08:40.848Z,46.48
2023-04-15T11:09:42.510Z,49.82
2023-04-15T11:10:44.238Z,49.84
2023-04-15T11:11:46.467Z,48.86
2023-04-15T11:12:47.707Z,45.75
2023-04-15T11:13:49.431Z,46.78
2023-04-15T11:14:51.165Z,48.38
2023-04-15T11:15:52.911Z,46.71
2023-04-15T11:16:54.649Z,47.42
2023-04-15T11:17:56.499Z,49.91
2023-04-15T11:18:58.128Z,47.46
2023-04-15T11:19:59.976Z,46.52
2023-04-15T11:21:01.585Z,47.93
2023-04-15T11:22:03.368Z,48.54
2023-04-15T11:23:14.764Z,48.2
2023-04-15T11:24:06.935Z,50.28
2023-04-15T11:25:08.528Z,47.67
2023-04-15T11:26:10.270Z,48.65
2023-04-15T11:27:12.000Z,50.14
2023-04-15T11:28:13.777Z,49.67
2023-04-15T11:29:15.450Z,50.78
2023-04-15T11:30:17.191Z,50.3
2023-04-15T11:31:19.007Z,50.21
2023-04-15T11:32:20.675Z,48.74
2023-04-15T11:33:22.412Z,50.09
2023-04-15T11:34:24.254Z,45.85
2023-04-15T11:35:25.847Z,46.75
2023-04-15T11:36:27.675Z,46
2023-04-15T11:37:29.328Z,48.19
2023-04-15T11:38:31.117Z,46.46
2023-04-15T11:39:32.795Z,45.48
2023-04-15T11:40:34.559Z,45.31
2023-04-15T11:41:36.268Z,49.07
2023-04-15T11:42:48.563Z,51.33
2023-04-15T11:43:39.747Z,48.59
2023-04-15T11:44:41.478Z,51.25
2023-04-15T11:45:43.218Z,52.77
2023-04-15T11:46:45.616Z,49.26
2023-04-15T11:47:46.702Z,50.95
2023-04-15T11:48:48.462Z,47.72
2023-04-15T11:49:50.127Z,50.01
2023-04-15T11:50:51.863Z,52.31
2023-04-15T11:51:53.627Z,54.95
2023-04-15T11:52:55.401Z,53.95
2023-04-15T11:53:57.078Z,52.75
2023-04-15T11:54:58.806Z,50.11
2023-04-15T11:56:00.553Z,49.31
2023-04-15T11:57:02.279Z,48.59
2023-04-15T11:58:04.027Z,48.7
2023-04-15T11:59:05.724Z,48.94
2023-04-15T12:00:07.514Z,49.31
2023-04-15T12:01:09.233Z,51.25
2023-04-15T12:02:11.031Z,51.6
2023-04-15T12:03:12.947Z,52.97
2023-04-15T12:04:14.645Z,51.66
2023-04-15T12:05:16.341Z,53.42
2023-04-15T12:06:17.928Z,52.46
2023-04-15T12:07:19.619Z,51.98
2023-04-15T12:08:21.352Z,50.96
2023-04-15T12:09:23.094Z,49.85
2023-04-15T12:10:24.852Z,50.72
2023-04-15T12:11:26.569Z,52.75
2023-04-15T12:12:28.312Z,53.18
2023-04-15T12:13:30.013Z,55.03
2023-04-15T12:14:31.788Z,57.4
2023-04-15T12:15:34.046Z,58.39
2023-04-15T12:16:37.235Z,56.59
2023-04-15T12:17:51.606Z,55.28
2023-04-15T12:18:38.705Z,55.69
2023-04-15T12:19:40.437Z,54.46
2023-04-15T12:20:42.159Z,54.48
2023-04-15T12:21:43.924Z,51.64
2023-04-15T12:22:45.657Z,51.32
2023-04-15T12:23:47.379Z,51.95
2023-04-15T12:24:49.110Z,53.18
2023-04-15T12:25:50.842Z,53.63
2023-04-15T12:26:52.620Z,53.97
2023-04-15T12:27:54.311Z,53.69
2023-04-15T12:28:56.054Z,54.87
2023-04-15T12:29:57.805Z,55.38
2023-04-15T12:30:59.547Z,55.26
2023-04-15T12:32:01.264Z,55.62
2023-04-15T12:33:03.089Z,57.28
2023-04-15T12:34:05.040Z,57.27
2023-04-15T12:35:06.439Z,55
2023-04-15T12:36:08.195Z,57.17
2023-04-15T12:37:09.916Z,54.64
2023-04-15T12:38:11.657Z,56.26
2023-04-15T12:39:13.458Z,56.63
2023-04-15T12:40:15.130Z,57.42
2023-04-15T12:41:16.880Z,61.42
2023-04-15T12:42:18.798Z,57.83
2023-04-15T12:43:20.346Z,58.93
2023-04-15T12:44:22.072Z,61.31
2023-04-15T12:45:23.818Z,62.69
2023-04-15T12:46:25.620Z,61.37
2023-04-15T12:47:27.285Z,60.56
2023-04-15T12:48:28.988Z,62.83
2023-04-15T12:49:30.728Z,62.68
2023-04-15T12:50:32.468Z,62.79
2023-04-15T12:51:34.203Z,63.09
2023-04-15T12:52:35.943Z,64.09
2023-04-15T12:53:37.707Z,62.9
2023-04-15T12:54:39.409Z,62.57
2023-04-15T12:55:41.253Z,64.52
2023-04-15T12:56:42.877Z,64.54
2023-04-15T12:57:44.632Z,66.66
2023-04-15T12:58:46.352Z,63.27
2023-04-15T12:59:48.081Z,65.86
2023-04-15T13:00:49.814Z,66.3
2023-04-15T13:01:51.621Z,66.25
2023-04-15T13:02:53.348Z,68.9
2023-04-15T13:03:55.084Z,66.17
2023-04-15T13:04:56.885Z,67.64
2023-04-15T13:05:58.643Z,68.15
2023-04-15T13:07:00.245Z,69.88
2023-04-15T13:08:01.970Z,67.15
2023-04-15T13:09:05.275Z,64.24
2023-04-15T13:10:05.454Z,65.53
2023-04-15T13:11:07.133Z,70.19
2023-04-15T13:12:08.910Z,70.09
2023-04-15T13:13:10.604Z,68.55
2023-04-15T13:14:12.353Z,67.41
2023-04-15T13:15:14.087Z,71.82
2023-04-15T13:16:15.947Z,72.34
2023-04-15T13:17:17.558Z,71.82
2023-04-15T13:18:19.280Z,73.63
2023-04-15T13:19:21.036Z,74.56
2023-04-15T13:20:22.758Z,66.12
2023-04-15T13:21:24.508Z,69.02
2023-04-15T13:22:26.235Z,69.85
2023-04-15T13:23:27.958Z,69.04
2023-04-15T13:24:29.691Z,68.27
2023-04-15T13:25:31.449Z,68.8
2023-04-15T13:26:33.177Z,65.98
2023-04-15T13:27:34.900Z,68.35
2023-04-15T13:28:36.649Z,70.58
2023-04-15T13:29:38.380Z,69.62
2023-04-15T13:30:40.102Z,68.47
2023-04-15T13:31:41.907Z,66.52
2023-04-15T13:32:43.605Z,68.66
2023-04-15T13:33:45.298Z,70.8
2023-04-15T13:34:47.046Z,69.73
2023-04-15T13:35:48.765Z,70.83
2023-04-15T13:36:50.494Z,70.15
2023-04-15T13:37:52.227Z,68.16
2023-04-15T13:38:53.983Z,68.42
2023-04-15T13:39:55.716Z,70.25
2023-04-15T13:40:57.438Z,71.14
2023-04-15T13:41:59.209Z,71.07
2023-04-15T13:43:00.941Z,71
2023-04-15T13:44:02.879Z,73
2023-04-15T13:45:04.378Z,74.35
2023-04-15T13:46:07.205Z,75.21
2023-04-15T13:47:07.896Z,77.85